Time;durP1;ratioP1;P1;durP2;ratioP2;P2;SDS_P1;SDS_P2;PMS_P1;PMS_P2;Temp;Humidity;BMP_temperature;BMP_pressure;BME280_temperature;BME280_humidity;BME280_pressure;Samples;Min_cycle;Max_cycle;Signal;HPM_P1;HPM_P2
2021/04/29 00:01:04;;;;;;;5.07;2.10;;;11.80;99.70;;;;;;5039844;28;20563;-65
2021/04/29 00:03:31;;;;;;;3.73;2.27;;;11.80;99.70;;;;;;5039578;28;20448;-65
2021/04/29 00:05:57;;;;;;;6.00;2.13;;;11.80;99.70;;;;;;5040324;28;20444;-65
2021/04/29 00:08:24;;;;;;;3.20;2.10;;;11.80;99.70;;;;;;5040316;28;20469;-65
2021/04/29 00:10:50;;;;;;;3.93;2.30;;;11.80;99.70;;;;;;5040573;28;20962;-66
2021/04/29 00:13:18;;;;;;;4.83;2.03;;;11.80;99.70;;;;;;5038823;28;20448;-65
2021/04/29 00:15:44;;;;;;;4.33;2.60;;;11.80;99.70;;;;;;5020087;28;20840;-65
2021/04/29 00:18:11;;;;;;;6.10;2.80;;;11.70;99.70;;;;;;5019583;28;20465;-65
2021/04/29 00:20:37;;;;;;;4.13;2.20;;;11.70;99.70;;;;;;5020152;28;20860;-66
2021/04/29 00:23:03;;;;;;;5.80;2.90;;;11.70;99.70;;;;;;5019116;28;20445;-65
2021/04/29 00:25:29;;;;;;;6.70;2.83;;;11.70;99.70;;;;;;5019083;28;20497;-65
2021/04/29 00:27:55;;;;;;;4.70;3.00;;;11.70;99.70;;;;;;5020712;28;20807;-65
2021/04/29 00:30:23;;;;;;;6.27;3.27;;;11.70;99.70;;;;;;5038991;28;20456;-65
2021/04/29 00:32:50;;;;;;;5.63;2.33;;;11.70;99.70;;;;;;5039698;28;20452;-65
2021/04/29 00:35:16;;;;;;;6.33;2.90;;;11.70;99.70;;;;;;5039409;28;20441;-65
2021/04/29 00:37:43;;;;;;;8.73;3.40;;;11.70;99.70;;;;;;5039276;28;20449;-65
2021/04/29 00:40:10;;;;;;;5.20;2.93;;;11.80;99.70;;;;;;5039425;28;21043;-65
2021/04/29 00:42:38;;;;;;;5.53;3.07;;;11.70;99.70;;;;;;5036708;28;20460;-66
2021/04/29 00:45:06;;;;;;;7.43;2.53;;;11.70;99.70;;;;;;5019417;28;20511;-65
2021/04/29 00:47:34;;;;;;;7.83;3.23;;;11.70;99.70;;;;;;5019724;28;20483;-65
2021/04/29 00:50:01;;;;;;;7.30;3.90;;;11.80;99.70;;;;;;5019638;28;20449;-65
2021/04/29 00:52:29;;;;;;;6.53;3.30;;;11.80;99.70;;;;;;5019500;28;20442;-65
2021/04/29 00:54:55;;;;;;;6.77;3.60;;;11.70;99.70;;;;;;5019355;28;20477;-65
2021/04/29 00:57:22;;;;;;;5.00;2.60;;;11.70;99.70;;;;;;5024145;28;20448;-65
2021/04/29 00:59:48;;;;;;;4.97;3.20;;;11.70;99.70;;;;;;5038184;28;20491;-65
2021/04/29 01:02:15;;;;;;;12.80;3.73;;;11.70;99.70;;;;;;5039028;28;20952;-66
2021/04/29 01:04:51;;;;;;;5.30;2.90;;;11.60;99.70;;;;;;5039024;28;20441;-66
2021/04/29 01:07:18;;;;;;;8.17;2.77;;;11.50;99.70;;;;;;5021640;28;20818;-65
2021/04/29 01:09:49;;;;;;;5.87;3.00;;;11.50;99.70;;;;;;5019248;28;20466;-66
2021/04/29 01:12:20;;;;;;;5.50;2.70;;;11.60;99.70;;;;;;5018870;28;20449;-65
2021/04/29 01:14:47;;;;;;;4.60;3.00;;;11.60;99.70;;;;;;5019145;28;20442;-66
2021/04/29 01:17:14;;;;;;;4.37;2.70;;;11.60;99.70;;;;;;5021821;28;20445;-66
2021/04/29 01:19:43;;;;;;;5.33;2.47;;;11.60;99.70;;;;;;5023300;28;20508;-65
2021/04/29 01:22:12;;;;;;;5.90;3.33;;;11.70;99.70;;;;;;5043483;28;20461;-66
2021/04/29 01:24:46;;;;;;;6.03;2.93;;;11.60;99.70;;;;;;5042805;28;20877;-66
2021/04/29 01:27:15;;;;;;;5.67;2.53;;;11.60;99.70;;;;;;5044148;28;20483;-65
2021/04/29 01:29:43;;;;;;;5.10;2.40;;;11.70;99.70;;;;;;5043470;28;20506;-66
2021/04/29 01:32:10;;;;;;;8.43;3.23;;;11.70;99.70;;;;;;5042519;28;20804;-66
2021/04/29 01:34:38;;;;;;;6.73;2.50;;;11.70;99.70;;;;;;5023224;28;20456;-66
2021/04/29 01:37:05;;;;;;;4.63;2.77;;;11.70;99.70;;;;;;5023627;28;20445;-66
2021/04/29 01:39:31;;;;;;;4.20;2.53;;;11.80;99.70;;;;;;5022969;28;20481;-65
2021/04/29 01:41:59;;;;;;;5.27;2.77;;;11.90;99.70;;;;;;5023569;28;20453;-66
2021/04/29 01:44:27;;;;;;;6.27;3.13;;;11.90;99.70;;;;;;5021830;28;20449;-65
2021/04/29 01:46:55;;;;;;;4.50;2.60;;;11.90;99.70;;;;;;5023302;28;20525;-65
2021/04/29 01:49:22;;;;;;;3.70;2.33;;;12.00;99.70;;;;;;5023267;28;20468;-65
2021/04/29 01:51:50;;;;;;;3.50;2.50;;;12.00;99.70;;;;;;5024071;28;20449;-66
2021/04/29 01:54:17;;;;;;;4.80;2.77;;;12.00;99.70;;;;;;5042578;28;20463;-65
2021/04/29 01:56:44;;;;;;;4.57;2.40;;;12.00;99.70;;;;;;5042523;28;20536;-66
2021/04/29 01:59:11;;;;;;;5.13;2.30;;;12.00;99.70;;;;;;5042236;28;20549;-66
2021/04/29 02:01:39;;;;;;;4.10;1.93;;;12.10;99.70;;;;;;5042704;28;20453;-65
2021/04/29 02:04:06;;;;;;;3.00;2.00;;;12.10;99.70;;;;;;5042581;28;20448;-66
2021/04/29 02:06:32;;;;;;;5.90;2.17;;;12.10;99.70;;;;;;5039573;28;20465;-66
2021/04/29 02:08:59;;;;;;;3.63;2.07;;;12.10;99.70;;;;;;5022997;28;20465;-66
2021/04/29 02:11:25;;;;;;;2.70;1.90;;;12.10;99.70;;;;;;5022809;28;21041;-65
2021/04/29 02:13:54;;;;;;;3.13;1.90;;;12.10;99.70;;;;;;5003320;28;20443;-66
2021/04/29 02:16:30;;;;;;;5.70;2.70;;;12.10;99.70;;;;;;5003888;28;20450;-66
2021/04/29 02:18:58;;;;;;;2.70;1.70;;;12.20;99.70;;;;;;5002777;28;20469;-66
2021/04/29 02:21:24;;;;;;;2.37;1.70;;;12.10;99.70;;;;;;5003572;28;20829;-66
2021/04/29 02:23:51;;;;;;;2.60;2.00;;;12.10;99.70;;;;;;5009460;28;20473;-66
2021/04/29 02:26:19;;;;;;;3.17;2.00;;;12.00;99.70;;;;;;5022843;28;20477;-65
2021/04/29 02:28:45;;;;;;;2.63;1.97;;;12.10;99.70;;;;;;5023527;28;20556;-66
2021/04/29 02:31:12;;;;;;;3.47;1.90;;;12.10;99.70;;;;;;5022757;28;20995;-65
2021/04/29 02:33:40;;;;;;;4.00;2.13;;;12.10;99.70;;;;;;5022405;28;20483;-66
2021/04/29 02:36:09;;;;;;;2.60;1.53;;;12.10;99.70;;;;;;5022739;28;20442;-64
2021/04/29 02:38:36;;;;;;;3.07;2.10;;;12.10;99.70;;;;;;5022708;28;20469;-66
2021/04/29 02:41:04;;;;;;;2.80;1.40;;;12.20;99.70;;;;;;5024658;28;20481;-66
2021/04/29 02:43:31;;;;;;;2.50;1.60;;;12.20;99.70;;;;;;5022101;28;20449;-66
2021/04/29 02:45:57;;;;;;;3.37;1.70;;;12.20;99.70;;;;;;5022896;28;20446;-66
2021/04/29 02:48:25;;;;;;;1.63;1.30;;;12.20;99.70;;;;;;5022949;28;20539;-66
2021/04/29 02:50:51;;;;;;;2.20;1.70;;;12.20;99.70;;;;;;5019295;28;20454;-65
2021/04/29 02:53:19;;;;;;;1.60;1.20;;;12.20;99.70;;;;;;5018785;28;20449;-65
2021/04/29 02:55:47;;;;;;;1.30;1.10;;;12.20;99.70;;;;;;5017747;28;20472;-65
2021/04/29 02:58:16;;;;;;;2.07;1.30;;;12.20;99.70;;;;;;5029179;28;20775;-65
2021/04/29 03:00:43;;;;;;;1.60;1.40;;;12.30;99.70;;;;;;5037014;28;20893;-65
2021/04/29 03:03:11;;;;;;;2.10;1.30;;;12.30;99.70;;;;;;5039325;28;20466;-63
2021/04/29 03:05:38;;;;;;;2.33;1.30;;;12.20;99.70;;;;;;5040201;28;20477;-66
2021/04/29 03:08:04;;;;;;;1.50;1.10;;;12.30;99.70;;;;;;5039231;28;20447;-65
2021/04/29 03:10:32;;;;;;;1.83;1.20;;;12.30;99.70;;;;;;5038949;28;20455;-65
2021/04/29 03:12:58;;;;;;;2.33;1.20;;;12.20;99.70;;;;;;5037960;28;20455;-65
2021/04/29 03:15:25;;;;;;;1.33;1.10;;;12.20;99.70;;;;;;5035285;28;20445;-66
2021/04/29 03:17:51;;;;;;;1.80;1.10;;;12.30;99.70;;;;;;5037488;28;20448;-65
2021/04/29 03:20:18;;;;;;;1.20;0.93;;;12.30;99.70;;;;;;5035232;28;20492;-66
2021/04/29 03:22:44;;;;;;;1.80;1.20;;;12.00;99.70;;;;;;5027697;28;20450;-66
2021/04/29 03:25:12;;;;;;;1.70;1.20;;;12.10;99.70;;;;;;5014196;28;20508;-64
2021/04/29 03:27:39;;;;;;;1.47;1.03;;;12.00;99.70;;;;;;5013389;28;20442;-66
2021/04/29 03:30:06;;;;;;;1.90;1.03;;;11.70;99.70;;;;;;5014865;28;20901;-65
2021/04/29 03:32:33;;;;;;;2.00;1.10;;;11.70;99.70;;;;;;5018551;28;20813;-65
2021/04/29 03:34:59;;;;;;;2.27;1.10;;;11.80;99.70;;;;;;5018645;28;20461;-65
2021/04/29 03:37:25;;;;;;;1.53;1.13;;;11.70;99.70;;;;;;5018202;28;20449;-65
2021/04/29 03:39:51;;;;;;;1.73;1.00;;;11.80;99.70;;;;;;5017644;28;20489;-65
2021/04/29 03:42:18;;;;;;;1.50;1.10;;;11.80;99.70;;;;;;5017629;28;20452;-65
2021/04/29 03:44:45;;;;;;;1.50;1.10;;;11.90;99.70;;;;;;5017516;28;20513;-66
2021/04/29 03:47:11;;;;;;;1.23;0.90;;;11.80;99.70;;;;;;5018558;28;20932;-65
2021/04/29 03:49:38;;;;;;;1.70;1.10;;;11.80;99.70;;;;;;5037019;28;20461;-65
2021/04/29 03:52:04;;;;;;;1.40;1.00;;;11.80;99.70;;;;;;5037516;28;20436;-65
2021/04/29 03:54:30;;;;;;;1.40;1.00;;;11.80;99.70;;;;;;5036883;28;20451;-65
2021/04/29 03:56:56;;;;;;;1.20;0.90;;;11.80;99.70;;;;;;5037316;28;20787;-66
2021/04/29 03:59:23;;;;;;;1.70;1.00;;;11.80;99.70;;;;;;5030468;28;20481;-66
2021/04/29 04:01:50;;;;;;;1.40;0.93;;;11.70;99.70;;;;;;5017772;28;20460;-65
2021/04/29 04:04:17;;;;;;;1.30;0.90;;;11.60;99.70;;;;;;5018269;28;20497;-65
2021/04/29 04:06:43;;;;;;;1.30;0.93;;;11.80;99.70;;;;;;5016879;28;20457;-65
2021/04/29 04:09:09;;;;;;;1.20;0.90;;;11.70;99.70;;;;;;5016391;28;20461;-65
2021/04/29 04:11:35;;;;;;;1.40;1.10;;;11.60;99.70;;;;;;5016250;28;20512;-65
2021/04/29 04:14:02;;;;;;;3.00;1.10;;;11.60;99.70;;;;;;5020428;28;20445;-65
2021/04/29 04:16:29;;;;;;;1.20;0.90;;;11.50;99.70;;;;;;5014975;28;20553;-65
2021/04/29 04:18:56;;;;;;;1.60;1.10;;;11.50;99.70;;;;;;5015918;28;20472;-65
2021/04/29 04:21:22;;;;;;;1.30;1.00;;;11.50;99.70;;;;;;4997172;28;20462;-65
2021/04/29 04:23:49;;;;;;;1.83;1.10;;;11.50;99.70;;;;;;4995294;28;20449;-66
2021/04/29 04:26:15;;;;;;;1.50;1.03;;;11.50;99.70;;;;;;5012024;28;20454;-65
2021/04/29 04:28:41;;;;;;;1.30;1.00;;;11.40;99.70;;;;;;5015840;28;20465;-66
2021/04/29 04:31:07;;;;;;;2.43;1.40;;;11.40;99.70;;;;;;5012201;28;20448;-66
2021/04/29 04:33:33;;;;;;;1.40;0.90;;;11.30;99.70;;;;;;5035064;28;20449;-66
2021/04/29 04:36:01;;;;;;;1.20;0.90;;;11.30;99.70;;;;;;5019461;28;20519;-65
2021/04/29 04:38:27;;;;;;;1.50;1.20;;;11.40;99.70;;;;;;5015180;28;20892;-65
2021/04/29 04:40:54;;;;;;;1.50;1.20;;;11.30;99.70;;;;;;5002354;28;20478;-65
2021/04/29 04:43:21;;;;;;;1.20;0.80;;;11.20;99.70;;;;;;4995822;28;20450;-65
2021/04/29 04:45:47;;;;;;;1.40;1.10;;;11.10;99.70;;;;;;5007756;28;20477;-65
2021/04/29 04:48:13;;;;;;;1.93;1.27;;;11.10;99.70;;;;;;5025704;28;20459;-65
2021/04/29 04:50:40;;;;;;;1.57;1.20;;;11.10;99.70;;;;;;5009112;28;20485;-65
2021/04/29 04:53:07;;;;;;;1.70;1.20;;;11.10;99.70;;;;;;5000995;28;20453;-66
2021/04/29 04:55:34;;;;;;;1.73;1.20;;;11.30;99.70;;;;;;5014340;28;20454;-66
2021/04/29 04:58:01;;;;;;;1.40;1.17;;;11.20;99.70;;;;;;5021647;28;20513;-65
2021/04/29 05:00:27;;;;;;;1.33;1.00;;;11.40;99.70;;;;;;5007202;28;20509;-65
2021/04/29 05:02:53;;;;;;;2.20;1.20;;;11.50;99.70;;;;;;5000292;28;20446;-66
2021/04/29 05:05:19;;;;;;;1.33;1.00;;;11.50;99.70;;;;;;5016789;28;20449;-65
2021/04/29 05:07:46;;;;;;;2.53;1.33;;;11.60;99.70;;;;;;5016912;28;20596;-65
2021/04/29 05:10:13;;;;;;;1.70;1.03;;;11.60;99.70;;;;;;5005991;28;20485;-65
2021/04/29 05:12:39;;;;;;;1.63;1.30;;;11.60;99.70;;;;;;4996291;28;20454;-65
2021/04/29 05:15:07;;;;;;;2.03;1.00;;;11.60;99.70;;;;;;5005885;28;20861;-65
2021/04/29 05:17:33;;;;;;;2.10;1.20;;;11.50;99.70;;;;;;5023441;28;20496;-65
2021/04/29 05:20:00;;;;;;;2.10;1.47;;;11.60;99.70;;;;;;5029040;28;20910;-66
2021/04/29 05:22:26;;;;;;;2.90;1.20;;;11.60;99.70;;;;;;5017323;28;20449;-66
2021/04/29 05:24:52;;;;;;;2.03;1.40;;;11.70;99.70;;;;;;5012234;28;20477;-65
2021/04/29 05:27:19;;;;;;;1.53;1.23;;;11.70;99.70;;;;;;4996749;28;20448;-65
2021/04/29 05:29:45;;;;;;;2.60;1.50;;;11.70;99.70;;;;;;5004592;28;20468;-65
2021/04/29 05:32:12;;;;;;;2.90;1.27;;;11.60;99.70;;;;;;5024652;28;20433;-66
2021/04/29 05:34:38;;;;;;;1.50;1.13;;;11.70;99.70;;;;;;5029452;28;20449;-65
2021/04/29 05:37:04;;;;;;;1.83;1.17;;;11.90;99.70;;;;;;5021097;28;20508;-65
2021/04/29 05:39:31;;;;;;;1.50;1.30;;;12.00;99.70;;;;;;5016393;28;20478;-65
2021/04/29 05:41:57;;;;;;;3.10;1.50;;;11.80;99.70;;;;;;5002962;28;20446;-66
2021/04/29 05:44:24;;;;;;;2.27;1.50;;;11.90;99.70;;;;;;5003091;28;20453;-66
2021/04/29 05:46:50;;;;;;;3.00;1.67;;;11.80;99.70;;;;;;5016909;28;20445;-65
2021/04/29 05:49:16;;;;;;;1.80;1.43;;;11.90;99.70;;;;;;5014795;28;20474;-65
2021/04/29 05:51:42;;;;;;;2.70;1.50;;;12.10;99.70;;;;;;4997938;28;20950;-65
2021/04/29 05:54:09;;;;;;;2.63;1.50;;;12.00;99.70;;;;;;4997174;28;20456;-66
2021/04/29 05:56:36;;;;;;;2.63;1.60;;;12.00;99.70;;;;;;4996874;28;20473;-66
2021/04/29 05:59:02;;;;;;;2.07;1.23;;;11.90;99.70;;;;;;5015045;28;20481;-65
2021/04/29 06:01:29;;;;;;;2.30;1.60;;;12.00;99.70;;;;;;5016443;28;20442;-66
2021/04/29 06:03:55;;;;;;;4.30;1.97;;;12.00;99.70;;;;;;5016889;28;20859;-65
2021/04/29 06:06:22;;;;;;;2.20;1.60;;;12.10;99.70;;;;;;5011230;28;20449;-65
2021/04/29 06:08:50;;;;;;;3.07;1.70;;;12.10;99.70;;;;;;5033790;28;20477;-65
2021/04/29 06:11:16;;;;;;;2.10;1.50;;;12.20;99.70;;;;;;5013532;28;20457;-65
2021/04/29 06:13:44;;;;;;;1.97;1.33;;;12.20;99.70;;;;;;5017359;28;20437;-65
2021/04/29 06:16:10;;;;;;;3.27;1.83;;;12.10;99.70;;;;;;5033429;28;20456;-65
2021/04/29 06:18:37;;;;;;;2.50;1.70;;;12.20;99.70;;;;;;5030752;28;20473;-65
2021/04/29 06:21:04;;;;;;;2.47;1.43;;;12.20;99.70;;;;;;5016486;28;20481;-65
2021/04/29 06:23:31;;;;;;;1.97;1.50;;;12.20;99.70;;;;;;5017709;28;20857;-65
2021/04/29 06:25:58;;;;;;;3.20;1.57;;;12.20;99.70;;;;;;4998010;28;20455;-65
2021/04/29 06:28:24;;;;;;;2.80;1.77;;;12.30;99.70;;;;;;5013716;28;20473;-65
2021/04/29 06:30:50;;;;;;;2.00;1.50;;;12.30;99.70;;;;;;5005554;28;20445;-65
2021/04/29 06:33:16;;;;;;;3.37;1.70;;;12.30;99.70;;;;;;5016962;28;20454;-65
2021/04/29 06:35:43;;;;;;;2.70;1.80;;;12.40;99.70;;;;;;5015749;28;20442;-65
2021/04/29 06:38:09;;;;;;;2.60;1.53;;;12.50;99.70;;;;;;5017256;28;21224;-65
2021/04/29 06:40:35;;;;;;;2.43;1.40;;;12.70;99.70;;;;;;5015510;28;20856;-65
2021/04/29 06:43:02;;;;;;;2.90;1.60;;;13.00;99.70;;;;;;5015826;28;20445;-65
2021/04/29 06:45:28;;;;;;;3.53;2.00;;;13.40;99.70;;;;;;5007482;28;20730;-65
2021/04/29 06:47:54;;;;;;;2.50;1.70;;;13.90;99.70;;;;;;5036250;28;20444;-65
2021/04/29 06:50:21;;;;;;;2.30;1.57;;;14.00;99.70;;;;;;5022602;28;20470;-65
2021/04/29 06:52:48;;;;;;;3.67;2.07;;;13.90;99.70;;;;;;5015422;28;20449;-65
2021/04/29 06:55:14;;;;;;;2.43;1.60;;;13.70;99.70;;;;;;5004122;28;20844;-64
2021/04/29 06:57:40;;;;;;;3.07;1.83;;;13.80;99.70;;;;;;4995050;28;20505;-65
2021/04/29 07:00:07;;;;;;;3.07;1.90;;;14.30;99.70;;;;;;4997746;28;20570;-65
2021/04/29 07:02:34;;;;;;;4.10;1.57;;;14.60;99.70;;;;;;5016209;28;20444;-65
2021/04/29 07:05:00;;;;;;;3.07;1.80;;;15.30;99.70;;;;;;5003125;28;20442;-65
2021/04/29 07:07:26;;;;;;;3.27;1.90;;;15.00;99.70;;;;;;5013554;28;20991;-65
2021/04/29 07:09:53;;;;;;;2.83;1.60;;;14.70;99.70;;;;;;5014337;28;20461;-65
2021/04/29 07:12:19;;;;;;;3.63;1.77;;;14.80;99.70;;;;;;5016352;28;20460;-65
2021/04/29 07:14:46;;;;;;;3.60;1.90;;;15.00;99.70;;;;;;5003047;28;20474;-65
2021/04/29 07:17:12;;;;;;;4.30;2.00;;;15.40;99.70;;;;;;5009490;28;20510;-66
2021/04/29 07:19:39;;;;;;;4.77;2.10;;;15.70;99.70;;;;;;5006141;28;20493;-66
2021/04/29 07:22:05;;;;;;;4.40;2.13;;;15.70;99.70;;;;;;4995433;28;20453;-66
2021/04/29 07:24:31;;;;;;;4.80;2.33;;;15.50;99.70;;;;;;5007415;28;20453;-66
2021/04/29 07:26:58;;;;;;;3.37;1.90;;;15.30;99.70;;;;;;5015678;28;20859;-66
2021/04/29 07:29:24;;;;;;;3.83;2.20;;;15.10;99.70;;;;;;5012379;28;20509;-66
2021/04/29 07:31:51;;;;;;;5.80;2.23;;;15.30;99.70;;;;;;5024832;28;20499;-66
2021/04/29 07:34:24;;;;;;;4.50;2.30;;;15.30;99.70;;;;;;5112327;27;20887;-66
2021/04/29 07:36:50;;;;;;;2.93;1.90;;;15.40;99.70;;;;;;5112600;28;20433;-66
2021/04/29 07:39:16;;;;;;;4.17;2.13;;;15.60;99.70;;;;;;5113022;28;20491;-66
2021/04/29 07:41:42;;;;;;;6.57;2.43;;;15.70;99.70;;;;;;5095795;28;20480;-66
2021/04/29 07:44:09;;;;;;;4.70;2.40;;;15.40;99.70;;;;;;5096565;28;20446;-66
2021/04/29 07:46:35;;;;;;;4.00;2.30;;;15.60;99.70;;;;;;5105918;28;20491;-66
2021/04/29 07:49:01;;;;;;;3.10;1.80;;;15.50;99.70;;;;;;5097492;28;20493;-65
2021/04/29 07:51:29;;;;;;;3.80;2.10;;;15.40;99.70;;;;;;5090873;28;20454;-66
2021/04/29 07:53:55;;;;;;;3.50;2.00;;;15.40;99.70;;;;;;5101297;28;20480;-66
2021/04/29 07:56:21;;;;;;;5.27;2.27;;;15.20;99.70;;;;;;5111268;28;20437;-66
2021/04/29 07:58:47;;;;;;;4.90;2.50;;;15.40;99.70;;;;;;5108522;28;20473;-65
2021/04/29 08:01:13;;;;;;;3.13;2.10;;;15.50;99.70;;;;;;5093613;28;20453;-66
2021/04/29 08:03:40;;;;;;;4.63;2.40;;;15.20;99.70;;;;;;5091878;28;20446;-66
2021/04/29 08:06:06;;;;;;;3.80;2.07;;;15.10;99.70;;;;;;5093023;28;20453;-66
2021/04/29 08:08:33;;;;;;;8.73;2.50;;;15.20;99.70;;;;;;5092896;28;20519;-66
2021/04/29 08:10:59;;;;;;;6.10;2.50;;;15.20;99.70;;;;;;5092366;28;20449;-66
2021/04/29 08:13:25;;;;;;;6.83;2.47;;;15.30;99.70;;;;;;5093736;28;20485;-65
2021/04/29 08:15:51;;;;;;;6.37;2.60;;;15.50;99.70;;;;;;5111277;28;20452;-66
2021/04/29 08:18:18;;;;;;;5.20;2.30;;;15.40;99.70;;;;;;5109433;28;20456;-65
2021/04/29 08:20:44;;;;;;;4.93;2.77;;;15.30;99.70;;;;;;5112321;28;20452;-66
2021/04/29 08:23:10;;;;;;;4.60;2.60;;;15.40;99.70;;;;;;5110227;28;20958;-66
2021/04/29 08:25:37;;;;;;;5.63;2.93;;;15.20;99.70;;;;;;5091890;28;20449;-66
2021/04/29 08:28:04;;;;;;;6.00;2.80;;;15.20;99.70;;;;;;5090396;28;20438;-66
2021/04/29 08:30:30;;;;;;;6.70;2.60;;;15.20;99.70;;;;;;5109718;28;20442;-66
2021/04/29 08:32:59;;;;;;;5.63;2.83;;;15.10;99.70;;;;;;5102161;28;20466;-66
2021/04/29 08:35:26;;;;;;;5.80;3.23;;;15.20;99.70;;;;;;5088604;28;21031;-65
2021/04/29 08:37:52;;;;;;;4.53;2.50;;;15.10;99.70;;;;;;5088673;28;20449;-66
2021/04/29 08:40:19;;;;;;;5.97;2.90;;;15.00;99.70;;;;;;5106529;28;20472;-66
2021/04/29 08:42:47;;;;;;;5.10;2.60;;;14.90;99.70;;;;;;5107092;28;20433;-65
2021/04/29 08:45:14;;;;;;;6.50;3.27;;;15.00;99.70;;;;;;5086751;28;20956;-66
2021/04/29 08:47:41;;;;;;;4.83;2.73;;;15.10;99.70;;;;;;5088031;28;20992;-66
2021/04/29 08:50:09;;;;;;;5.83;3.17;;;15.20;99.70;;;;;;5076048;28;20458;-65
2021/04/29 08:52:37;;;;;;;6.87;3.07;;;15.20;98.70;;;;;;5075727;28;20500;-65
2021/04/29 08:55:05;;;;;;;5.70;3.30;;;15.20;99.50;;;;;;5077138;28;20451;-66
2021/04/29 08:57:31;;;;;;;6.00;3.23;;;15.20;98.80;;;;;;5076748;28;20438;-65
2021/04/29 08:59:59;;;;;;;6.97;3.37;;;15.10;99.70;;;;;;5076372;28;20470;-66
2021/04/29 09:02:32;;;;;;;6.50;3.60;;;14.90;99.70;;;;;;5078492;28;20447;-66
2021/04/29 09:05:09;;;;;;;4.43;2.60;;;15.10;99.70;;;;;;5076307;28;20890;-66
2021/04/29 09:07:36;;;;;;;6.00;3.47;;;15.30;98.40;;;;;;5074946;28;20453;-65
2021/04/29 09:10:03;;;;;;;6.60;3.47;;;15.50;99.10;;;;;;5075482;28;20466;-64
2021/04/29 09:12:32;;;;;;;7.17;3.40;;;15.60;99.10;;;;;;5074937;28;20479;-64
2021/04/29 09:15:00;;;;;;;5.27;2.77;;;15.50;99.60;;;;;;5075205;28;20977;-64
2021/04/29 09:17:27;;;;;;;5.13;3.00;;;15.40;96.10;;;;;;5089572;28;20450;-64
2021/04/29 09:19:53;;;;;;;6.07;2.83;;;15.20;97.50;;;;;;5078343;28;20467;-65
2021/04/29 09:22:20;;;;;;;5.87;2.73;;;15.20;96.10;;;;;;5077783;28;20457;-65
2021/04/29 09:24:47;;;;;;;6.67;3.00;;;15.20;97.70;;;;;;5083704;28;20442;-64
2021/04/29 09:27:15;;;;;;;5.70;2.77;;;15.10;97.60;;;;;;5098516;28;20438;-65
2021/04/29 09:29:56;;;;;;;5.27;2.90;;;15.50;97.20;;;;;;5098230;28;20477;-65
2021/04/29 09:32:30;;;;;;;3.50;2.37;;;15.60;97.30;;;;;;5078416;28;20450;-65
2021/04/29 09:34:57;;;;;;;5.90;2.60;;;15.70;97.00;;;;;;5094904;28;20447;-65
2021/04/29 09:37:32;;;;;;;4.90;2.70;;;15.80;96.50;;;;;;5094467;28;20481;-65
2021/04/29 09:39:58;;;;;;;4.40;2.70;;;15.30;96.40;;;;;;5094705;28;20472;-65
2021/04/29 09:42:33;;;;;;;7.50;3.23;;;14.90;97.20;;;;;;5075306;28;20454;-64
2021/04/29 09:45:00;;;;;;;5.63;2.67;;;14.80;97.70;;;;;;5075057;28;20468;-65
2021/04/29 09:47:26;;;;;;;4.70;2.70;;;14.80;98.90;;;;;;5078399;28;20839;-65
2021/04/29 09:49:54;;;;;;;6.60;2.80;;;15.00;98.10;;;;;;5093801;28;20473;-65
2021/04/29 09:52:21;;;;;;;3.80;2.17;;;14.70;98.40;;;;;;5094102;28;20453;-65
2021/04/29 09:54:48;;;;;;;6.63;3.13;;;14.60;98.70;;;;;;5088269;28;20438;-66
2021/04/29 09:57:21;;;;;;;5.13;2.70;;;14.50;98.80;;;;;;5095652;28;20438;-64
2021/04/29 09:59:49;;;;;;;3.20;2.03;;;14.50;99.70;;;;;;5095943;28;20519;-64
2021/04/29 10:02:17;;;;;;;5.63;2.20;;;14.40;99.70;;;;;;5097056;28;20441;-64
2021/04/29 10:04:45;;;;;;;4.13;2.20;;;14.20;99.70;;;;;;5095705;28;20449;-65
2021/04/29 10:07:12;;;;;;;9.30;3.13;;;14.40;99.70;;;;;;5096579;28;20452;-64
2021/04/29 10:09:39;;;;;;;8.13;2.70;;;14.40;99.70;;;;;;5076830;28;20540;-65
2021/04/29 10:12:08;;;;;;;5.40;2.43;;;14.60;99.70;;;;;;5080266;28;20442;-65
2021/04/29 10:14:36;;;;;;;3.77;2.23;;;14.90;99.70;;;;;;5095738;28;20434;-64
2021/04/29 10:17:06;;;;;;;3.27;2.23;;;15.10;99.70;;;;;;5098108;28;20440;-64
2021/04/29 10:19:36;;;;;;;4.87;2.47;;;15.20;99.70;;;;;;5098295;28;20454;-66
2021/04/29 10:22:02;;;;;;;6.83;3.00;;;15.50;99.60;;;;;;5096270;28;20446;-64
2021/04/29 10:24:29;;;;;;;7.60;3.67;;;15.70;99.70;;;;;;5096871;28;20828;-64
2021/04/29 10:27:04;;;;;;;4.50;2.60;;;15.70;97.70;;;;;;5098218;28;20449;-64
2021/04/29 10:29:30;;;;;;;6.43;2.90;;;15.90;99.30;;;;;;5096529;28;20458;-65
2021/04/29 10:31:58;;;;;;;6.97;3.20;;;16.20;99.70;;;;;;5095241;28;20483;-64
2021/04/29 10:34:35;;;;;;;5.37;2.77;;;16.00;99.70;;;;;;5094873;28;20752;-65
2021/04/29 10:37:12;;;;;;;5.97;2.80;;;16.10;99.20;;;;;;5088982;28;20461;-65
2021/04/29 10:39:51;;;;;;;5.50;3.10;;;15.90;98.90;;;;;;5083855;28;20473;-65
2021/04/29 10:42:17;;;;;;;6.63;3.53;;;16.00;97.70;;;;;;5094594;28;20477;-65
2021/04/29 10:44:45;;;;;;;7.83;3.87;;;15.60;99.00;;;;;;5093453;28;20448;-65
2021/04/29 10:47:22;;;;;;;6.10;3.13;;;15.70;99.20;;;;;;5093402;28;20445;-65
2021/04/29 10:49:48;;;;;;;5.90;3.13;;;15.90;98.60;;;;;;5088705;28;20814;-65
2021/04/29 10:52:14;;;;;;;6.10;3.53;;;15.70;97.80;;;;;;5072560;28;20473;-65
2021/04/29 10:54:50;;;;;;;8.00;3.00;;;15.50;98.00;;;;;;5073466;28;20457;-65
2021/04/29 10:57:16;;;;;;;7.83;3.53;;;15.50;97.50;;;;;;5081572;28;20442;-65
2021/04/29 10:59:45;;;;;;;6.00;3.03;;;15.10;97.90;;;;;;5085392;28;20550;-65
2021/04/29 11:02:25;;;;;;;5.83;3.03;;;15.10;98.50;;;;;;5083709;28;20443;-65
2021/04/29 11:04:52;;;;;;;10.33;3.40;;;15.20;99.60;;;;;;5081921;28;20458;-65
2021/04/29 11:07:20;;;;;;;6.13;2.97;;;15.30;98.00;;;;;;5096189;28;20477;-65
2021/04/29 11:09:58;;;;;;;5.47;2.83;;;15.50;98.20;;;;;;5080345;28;20470;-65
2021/04/29 11:12:41;;;;;;;4.20;2.63;;;15.90;98.70;;;;;;5083345;28;20446;-65
2021/04/29 11:15:22;;;;;;;8.37;3.40;;;15.80;97.50;;;;;;5074113;28;20450;-65
2021/04/29 11:18:00;;;;;;;8.30;3.10;;;15.90;97.00;;;;;;5087118;28;20461;-65
2021/04/29 11:20:26;;;;;;;5.80;3.03;;;16.10;95.80;;;;;;5081187;28;20462;-65
2021/04/29 11:22:55;;;;;;;6.13;3.20;;;16.00;95.40;;;;;;5095267;28;20487;-65
2021/04/29 11:25:22;;;;;;;6.17;3.00;;;16.20;96.10;;;;;;5094694;28;20535;-65
2021/04/29 11:27:54;;;;;;;5.30;2.87;;;16.20;95.20;;;;;;5083816;28;20473;-65
2021/04/29 11:30:22;;;;;;;5.87;2.53;;;16.30;94.40;;;;;;5075639;28;20469;-65
2021/04/29 11:32:56;;;;;;;4.57;2.60;;;16.20;95.40;;;;;;5075129;28;20543;-65
2021/04/29 11:35:24;;;;;;;4.40;2.53;;;16.10;94.60;;;;;;5075424;28;20474;-65
2021/04/29 11:37:51;;;;;;;4.13;2.60;;;15.60;95.00;;;;;;5082795;28;20450;-65
2021/04/29 11:40:17;;;;;;;5.10;2.27;;;15.20;95.70;;;;;;5074579;28;21003;-65
2021/04/29 11:42:49;;;;;;;4.00;2.37;;;14.70;96.60;;;;;;5085110;28;20445;-64
2021/04/29 11:45:18;;;;;;;3.37;2.07;;;14.30;97.40;;;;;;5077949;28;20466;-65
2021/04/29 11:47:56;;;;;;;3.57;2.07;;;14.10;96.50;;;;;;5084530;28;20443;-65
2021/04/29 11:50:24;;;;;;;4.60;2.30;;;13.90;97.70;;;;;;5074415;28;20467;-65
2021/04/29 11:52:50;;;;;;;4.07;2.10;;;14.00;97.50;;;;;;5083526;28;20481;-65
2021/04/29 11:55:23;;;;;;;4.20;2.10;;;14.00;97.40;;;;;;5094806;28;20836;-65
2021/04/29 11:57:51;;;;;;;3.03;2.07;;;13.90;96.50;;;;;;5084389;28;20443;-65
2021/04/29 12:00:18;;;;;;;2.47;1.57;;;13.90;95.80;;;;;;5075870;28;20466;-65
2021/04/29 12:02:56;;;;;;;2.97;1.93;;;13.90;96.80;;;;;;5091058;28;20441;-65
2021/04/29 12:05:30;;;;;;;3.20;1.83;;;13.90;99.70;;;;;;5079098;28;20481;-65
2021/04/29 12:07:57;;;;;;;6.03;2.30;;;13.80;99.70;;;;;;5084244;28;20540;-66
2021/04/29 12:10:23;;;;;;;2.53;1.80;;;13.60;99.70;;;;;;5073286;28;20799;-65
2021/04/29 12:12:51;;;;;;;4.17;2.37;;;13.60;99.70;;;;;;5072302;28;20478;-65
2021/04/29 12:15:17;;;;;;;5.50;2.70;;;13.40;99.70;;;;;;5073463;28;20446;-65
2021/04/29 12:17:43;;;;;;;3.47;2.03;;;13.30;99.70;;;;;;5072191;28;20443;-65
2021/04/29 12:20:10;;;;;;;4.67;2.30;;;13.30;99.70;;;;;;5080852;28;20466;-66
2021/04/29 12:22:39;;;;;;;3.57;2.27;;;13.30;99.70;;;;;;5090442;28;20449;-65
2021/04/29 12:25:07;;;;;;;5.90;1.70;;;13.70;99.70;;;;;;5082645;28;20430;-65
2021/04/29 12:27:38;;;;;;;4.00;2.10;;;13.70;99.70;;;;;;5086061;28;20452;-65
2021/04/29 12:30:08;;;;;;;4.27;2.40;;;13.70;99.70;;;;;;5094462;28;20462;-65
2021/04/29 12:32:37;;;;;;;3.77;2.20;;;13.90;99.70;;;;;;5096253;28;20454;-65
2021/04/29 12:35:04;;;;;;;3.93;1.83;;;13.90;99.70;;;;;;5088511;28;20469;-64
2021/04/29 12:37:31;;;;;;;4.33;2.30;;;13.80;99.70;;;;;;5096621;28;20449;-65
2021/04/29 12:39:57;;;;;;;3.37;1.80;;;13.90;99.70;;;;;;5074823;28;20466;-65
2021/04/29 12:42:24;;;;;;;2.80;1.90;;;13.90;98.80;;;;;;5076405;28;20439;-65
2021/04/29 12:44:57;;;;;;;4.70;2.40;;;14.10;98.30;;;;;;5085428;28;20508;-64
2021/04/29 12:47:27;;;;;;;3.70;2.20;;;14.10;98.60;;;;;;5076946;28;20457;-65
2021/04/29 12:49:58;;;;;;;4.40;1.93;;;14.20;97.80;;;;;;5077200;28;20467;-64